Time;durP1;ratioP1;P1;durP2;ratioP2;P2;SDS_P1;SDS_P2;PMS_P1;PMS_P2;Temp;Humidity;BMP_temperature;BMP_pressure;BME280_temperature;BME280_humidity;BME280_pressure;Samples;Min_cycle;Max_cycle;Signal;HPM_P1;HPM_P2
2023/07/11 00:00:00;;;;;;;27.73;7.40;;;;;;;;;;5018697;28;20078;-65
2023/07/11 00:02:26;;;;;;;27.75;7.50;;;;;;;;;;5022111;28;20036;-65
2023/07/11 00:04:53;;;;;;;33.72;7.15;;;;;;;;;;5023431;28;20017;-65
2023/07/11 00:07:20;;;;;;;29.58;7.55;;;;;;;;;;5022530;28;20040;-65
2023/07/11 00:09:47;;;;;;;27.42;7.50;;;;;;;;;;5026289;28;20033;-65
2023/07/11 00:12:14;;;;;;;29.27;7.72;;;;;;;;;;5001674;28;20052;-65
2023/07/11 00:14:40;;;;;;;29.75;7.85;;;;;;;;;;5025663;28;20029;-65
2023/07/11 00:17:06;;;;;;;22.75;7.30;;;;;;;;;;5024091;28;20110;-65
2023/07/11 00:19:51;;;;;;;22.80;7.25;;;;;;;;;;5026585;28;20028;-65
2023/07/11 00:22:18;;;;;;;20.55;6.93;;;;;;;;;;5016762;28;20426;-65
2023/07/11 00:24:44;;;;;;;26.55;7.22;;;;;;;;;;5029753;28;20116;-65
2023/07/11 00:27:11;;;;;;;28.45;7.68;;;;;;;;;;5021631;28;20056;-65
2023/07/11 00:29:37;;;;;;;24.17;7.00;;;;;;;;;;5028077;28;20634;-65
2023/07/11 00:32:04;;;;;;;27.88;8.05;;;;;;;;;;5041477;28;20119;-67
2023/07/11 00:34:30;;;;;;;29.98;7.55;;;;;;;;;;5025795;28;20087;-67
2023/07/11 00:36:56;;;;;;;25.95;7.13;;;;;;;;;;5026789;28;20032;-67
2023/07/11 00:39:22;;;;;;;21.55;7.50;;;;;;;;;;5023199;28;20528;-64
2023/07/11 00:41:49;;;;;;;24.58;7.80;;;;;;;;;;5029576;28;20036;-66
2023/07/11 00:44:16;;;;;;;23.35;7.45;;;;;;;;;;5023352;28;20474;-66
2023/07/11 00:46:43;;;;;;;22.75;6.35;;;;;;;;;;5026966;28;20524;-66
2023/07/11 00:49:14;;;;;;;17.83;6.43;;;;;;;;;;5020407;28;20553;-65
2023/07/11 00:51:42;;;;;;;20.73;6.35;;;;;;;;;;5027768;28;20408;-64
2023/07/11 00:54:10;;;;;;;20.35;6.95;;;;;;;;;;5024189;28;20021;-64
2023/07/11 00:56:39;;;;;;;25.00;7.05;;;;;;;;;;5025512;28;20036;-65
2023/07/11 00:59:05;;;;;;;23.50;7.30;;;;;;;;;;5023376;28;20086;-65
2023/07/11 01:01:32;;;;;;;23.85;7.53;;;;;;;;;;5023154;28;20096;-65
2023/07/11 01:03:59;;;;;;;25.00;7.50;;;;;;;;;;5029061;28;20469;-65
2023/07/11 01:06:27;;;;;;;30.20;7.95;;;;;;;;;;5026850;28;20037;-65
2023/07/11 01:08:54;;;;;;;24.88;7.25;;;;;;;;;;5027728;28;20150;-64
2023/07/11 01:11:22;;;;;;;24.02;7.05;;;;;;;;;;5024085;28;20685;-66
2023/07/11 01:13:48;;;;;;;23.58;7.03;;;;;;;;;;5030985;28;20066;-66
2023/07/11 01:16:14;;;;;;;27.65;6.70;;;;;;;;;;5027457;28;20021;-66
2023/07/11 01:18:41;;;;;;;18.25;6.65;;;;;;;;;;5027990;28;20466;-66
2023/07/11 01:21:08;;;;;;;22.35;6.53;;;;;;;;;;5024669;28;20033;-66
2023/07/11 01:23:35;;;;;;;23.33;6.75;;;;;;;;;;5022185;28;20033;-66
2023/07/11 01:26:02;;;;;;;28.02;7.35;;;;;;;;;;5024060;28;20033;-66
2023/07/11 01:28:29;;;;;;;29.27;7.40;;;;;;;;;;5027779;28;20120;-66
2023/07/11 01:30:55;;;;;;;25.73;7.25;;;;;;;;;;5025910;28;20493;-66
2023/07/11 01:33:24;;;;;;;22.02;6.82;;;;;;;;;;5023122;28;20522;-66
2023/07/11 01:35:52;;;;;;;23.23;6.70;;;;;;;;;;5020079;28;20438;-66
2023/07/11 01:38:19;;;;;;;21.65;6.35;;;;;;;;;;5021871;28;20395;-66
2023/07/11 01:40:45;;;;;;;25.52;6.72;;;;;;;;;;5028856;28;20032;-66
2023/07/11 01:43:11;;;;;;;26.05;7.32;;;;;;;;;;5021426;28;20033;-66
2023/07/11 01:45:37;;;;;;;23.38;6.32;;;;;;;;;;5030073;28;20467;-66
2023/07/11 01:48:04;;;;;;;27.67;6.72;;;;;;;;;;5019483;28;20046;-66
2023/07/11 01:50:30;;;;;;;24.65;6.80;;;;;;;;;;5025531;28;20028;-66
2023/07/11 01:52:56;;;;;;;21.33;6.43;;;;;;;;;;5031784;28;20025;-66
2023/07/11 01:55:22;;;;;;;24.42;6.95;;;;;;;;;;5031977;28;20502;-66
2023/07/11 01:57:48;;;;;;;21.60;6.45;;;;;;;;;;5027201;28;20107;-67
2023/07/11 02:00:15;;;;;;;24.83;6.65;;;;;;;;;;5020487;28;20033;-66
2023/07/11 02:02:41;;;;;;;23.40;6.88;;;;;;;;;;5032475;28;20091;-66
2023/07/11 02:05:07;;;;;;;22.70;6.65;;;;;;;;;;5019819;28;20067;-66
2023/07/11 02:07:33;;;;;;;21.15;6.70;;;;;;;;;;5027700;28;20355;-66
2023/07/11 02:10:00;;;;;;;20.80;6.55;;;;;;;;;;5022857;28;20553;-66
2023/07/11 02:12:26;;;;;;;27.02;6.85;;;;;;;;;;5030278;28;20039;-66
2023/07/11 02:14:52;;;;;;;19.73;6.50;;;;;;;;;;5021996;28;20135;-66
2023/07/11 02:17:18;;;;;;;21.58;6.32;;;;;;;;;;5017355;28;20226;-66
2023/07/11 02:19:45;;;;;;;19.67;6.63;;;;;;;;;;5025359;28;20060;-66
2023/07/11 02:22:11;;;;;;;22.88;6.93;;;;;;;;;;5024555;28;20443;-66
2023/07/11 02:24:39;;;;;;;25.88;7.20;;;;;;;;;;5026360;28;20013;-66
2023/07/11 02:27:05;;;;;;;23.02;6.65;;;;;;;;;;5002492;28;20044;-66
2023/07/11 02:29:31;;;;;;;30.00;7.47;;;;;;;;;;5027568;28;20503;-66
2023/07/11 02:31:58;;;;;;;23.13;7.05;;;;;;;;;;5032632;28;20032;-66
2023/07/11 02:34:24;;;;;;;24.88;6.40;;;;;;;;;;5023634;28;20126;-66
2023/07/11 02:36:50;;;;;;;20.95;6.45;;;;;;;;;;5033823;28;20043;-66
2023/07/11 02:39:16;;;;;;;20.38;5.93;;;;;;;;;;5023558;28;20083;-66
2023/07/11 02:41:43;;;;;;;20.35;6.28;;;;;;;;;;5025767;28;20033;-67
2023/07/11 02:44:09;;;;;;;23.40;6.40;;;;;;;;;;5024255;28;20212;-66
2023/07/11 02:46:35;;;;;;;20.05;5.90;;;;;;;;;;5030121;28;20324;-65
2023/07/11 02:49:02;;;;;;;21.88;6.47;;;;;;;;;;5017457;28;20686;-65
2023/07/11 02:51:28;;;;;;;25.35;6.57;;;;;;;;;;5020375;28;20029;-67
2023/07/11 02:53:54;;;;;;;21.60;6.75;;;;;;;;;;5028678;28;20034;-64
2023/07/11 02:56:20;;;;;;;24.63;6.45;;;;;;;;;;5023958;28;20518;-64
2023/07/11 02:58:47;;;;;;;18.40;6.10;;;;;;;;;;5027882;28;20071;-66
2023/07/11 03:01:13;;;;;;;25.42;6.95;;;;;;;;;;5020103;28;20135;-67
2023/07/11 03:03:40;;;;;;;27.52;6.35;;;;;;;;;;5025773;28;20029;-67
2023/07/11 03:06:06;;;;;;;18.52;5.80;;;;;;;;;;5022997;28;20102;-66
2023/07/11 03:08:32;;;;;;;25.98;6.35;;;;;;;;;;5026301;28;20037;-66
2023/07/11 03:10:59;;;;;;;24.52;6.72;;;;;;;;;;5028466;28;20034;-66
2023/07/11 03:13:26;;;;;;;27.00;6.85;;;;;;;;;;5022327;28;20052;-66
2023/07/11 03:15:52;;;;;;;24.80;6.93;;;;;;;;;;5030980;28;20051;-67
2023/07/11 03:18:18;;;;;;;24.40;7.35;;;;;;;;;;5023263;28;20036;-67
2023/07/11 03:20:44;;;;;;;24.73;7.40;;;;;;;;;;5030140;28;20032;-67
2023/07/11 03:23:12;;;;;;;23.67;6.97;;;;;;;;;;5023096;28;20399;-66
2023/07/11 03:25:38;;;;;;;21.35;6.88;;;;;;;;;;5022610;28;20372;-66
2023/07/11 03:28:05;;;;;;;22.98;6.70;;;;;;;;;;5014743;28;20078;-67
2023/07/11 03:30:32;;;;;;;23.92;6.20;;;;;;;;;;5019696;28;20120;-67
2023/07/11 03:32:59;;;;;;;21.65;6.18;;;;;;;;;;5020974;28;20025;-67
2023/07/11 03:35:25;;;;;;;22.42;6.45;;;;;;;;;;5022818;28;20120;-67
2023/07/11 03:37:51;;;;;;;26.27;7.18;;;;;;;;;;5025470;28;20155;-66
2023/07/11 03:40:17;;;;;;;23.08;6.65;;;;;;;;;;5018382;28;20036;-66
2023/07/11 03:42:43;;;;;;;20.10;6.47;;;;;;;;;;5018443;28;20029;-67
2023/07/11 03:45:10;;;;;;;21.08;6.53;;;;;;;;;;5018678;28;20041;-67
2023/07/11 03:47:36;;;;;;;22.77;6.85;;;;;;;;;;5023249;28;20579;-67
2023/07/11 03:50:02;;;;;;;20.25;6.68;;;;;;;;;;5023889;28;20369;-66
2023/07/11 03:52:28;;;;;;;18.95;6.38;;;;;;;;;;5025137;28;20036;-64
2023/07/11 03:54:54;;;;;;;22.52;5.82;;;;;;;;;;5028942;28;20110;-67
2023/07/11 03:57:21;;;;;;;18.77;5.55;;;;;;;;;;5019728;28;20038;-66
2023/07/11 03:59:47;;;;;;;17.08;5.70;;;;;;;;;;5024680;28;20107;-66
2023/07/11 04:02:13;;;;;;;18.63;5.60;;;;;;;;;;5001916;28;20157;-66
2023/07/11 04:04:39;;;;;;;22.55;6.07;;;;;;;;;;5025974;28;20162;-67
2023/07/11 04:07:05;;;;;;;17.17;5.43;;;;;;;;;;5024633;28;20475;-66
2023/07/11 04:09:32;;;;;;;16.85;6.35;;;;;;;;;;5025271;28;20124;-66
2023/07/11 04:11:58;;;;;;;20.02;6.13;;;;;;;;;;5027767;28;20032;-64
2023/07/11 04:14:24;;;;;;;19.02;6.00;;;;;;;;;;5023774;28;20035;-64
2023/07/11 04:16:50;;;;;;;20.73;5.82;;;;;;;;;;5028432;28;20107;-65
2023/07/11 04:19:20;;;;;;;20.88;6.50;;;;;;;;;;5022290;28;20036;-64
2023/07/11 04:21:46;;;;;;;24.17;6.75;;;;;;;;;;5025218;28;20033;-65
2023/07/11 04:24:19;;;;;;;25.35;6.88;;;;;;;;;;5020621;28;20029;-65
2023/07/11 04:26:49;;;;;;;22.10;6.35;;;;;;;;;;5015990;28;20567;-65
2023/07/11 04:29:27;;;;;;;26.92;7.68;;;;;;;;;;5024891;28;20062;-65
2023/07/11 04:31:54;;;;;;;24.70;7.03;;;;;;;;;;5030497;28;20453;-65
2023/07/11 04:34:23;;;;;;;19.98;6.15;;;;;;;;;;5022272;28;20526;-65
2023/07/11 04:36:49;;;;;;;19.60;6.55;;;;;;;;;;5028119;28;20036;-65
2023/07/11 04:39:25;;;;;;;20.27;6.28;;;;;;;;;;5025868;28;20056;-65
2023/07/11 04:41:55;;;;;;;18.65;6.28;;;;;;;;;;5044040;28;20570;-65
2023/07/11 04:44:24;;;;;;;18.58;6.15;;;;;;;;;;5019296;28;20090;-65
2023/07/11 04:46:50;;;;;;;20.98;6.15;;;;;;;;;;5026273;28;20056;-65
2023/07/11 04:49:37;;;;;;;22.95;6.40;;;;;;;;;;5025305;28;20041;-65
2023/07/11 04:52:03;;;;;;;22.98;6.45;;;;;;;;;;5023467;28;20041;-65
2023/07/11 04:54:36;;;;;;;21.63;6.63;;;;;;;;;;5032117;28;20086;-65
2023/07/11 04:57:02;;;;;;;23.02;6.50;;;;;;;;;;5034381;28;20118;-65
2023/07/11 04:59:36;;;;;;;16.90;5.57;;;;;;;;;;5031169;28;20546;-65
2023/07/11 05:02:05;;;;;;;23.15;6.65;;;;;;;;;;5026666;28;20164;-65
2023/07/11 05:04:35;;;;;;;23.10;6.68;;;;;;;;;;5036310;28;20158;-65
2023/07/11 05:07:03;;;;;;;18.88;6.43;;;;;;;;;;5028889;28;20029;-65
2023/07/11 05:09:31;;;;;;;16.52;5.70;;;;;;;;;;5028641;28;20449;-64
2023/07/11 05:11:57;;;;;;;22.50;6.55;;;;;;;;;;5026991;28;20028;-65
2023/07/11 05:14:26;;;;;;;22.38;7.03;;;;;;;;;;5027829;28;20128;-66
2023/07/11 05:17:22;;;;;;;26.63;8.48;;;;;;;;;;5035813;28;20036;-65
2023/07/11 05:20:00;;;;;;;22.30;7.32;;;;;;;;;;5028096;28;20135;-65
2023/07/11 05:22:33;;;;;;;25.75;8.20;;;;;;;;;;5028244;28;20067;-65
2023/07/11 05:25:05;;;;;;;26.65;8.57;;;;;;;;;;5029382;28;20126;-65
2023/07/11 05:27:31;;;;;;;27.80;8.50;;;;;;;;;;5032581;28;20094;-65
2023/07/11 05:30:12;;;;;;;26.10;8.30;;;;;;;;;;5027208;28;20119;-65
2023/07/11 05:32:38;;;;;;;24.38;7.47;;;;;;;;;;5029754;28;20017;-66
2023/07/11 05:35:08;;;;;;;22.30;7.00;;;;;;;;;;5022837;28;20134;-65
2023/07/11 05:37:38;;;;;;;21.00;6.75;;;;;;;;;;5030109;28;20473;-66
2023/07/11 05:40:05;;;;;;;22.92;7.38;;;;;;;;;;5022077;28;20029;-66
2023/07/11 05:42:31;;;;;;;22.13;7.25;;;;;;;;;;5025700;28;20036;-66
2023/07/11 05:47:33;;;;;;;;;;;;;;;;;;5983936;22;20408;-64
2023/07/11 05:49:59;;;;;;;20.23;6.57;;;;;;;;;;4949371;28;19921;-65
2023/07/11 05:52:26;;;;;;;21.50;6.88;;;;;;;;;;4936796;28;20424;-64
2023/07/11 05:54:52;;;;;;;23.08;7.50;;;;;;;;;;4934638;28;20062;-65
2023/07/11 05:57:18;;;;;;;22.58;6.60;;;;;;;;;;4950331;28;20034;-65
2023/07/11 05:59:44;;;;;;;29.45;7.95;;;;;;;;;;4951033;28;20548;-64
2023/07/11 06:02:10;;;;;;;27.35;7.60;;;;;;;;;;4950487;28;20030;-65
2023/07/11 06:04:36;;;;;;;34.35;7.95;;;;;;;;;;4939089;28;20050;-64
2023/07/11 06:07:03;;;;;;;22.05;7.53;;;;;;;;;;4936499;28;20153;-65
2023/07/11 06:09:29;;;;;;;28.00;8.23;;;;;;;;;;4930892;28;20619;-65
2023/07/11 06:11:55;;;;;;;24.98;7.85;;;;;;;;;;4950328;28;20034;-65
2023/07/11 06:14:23;;;;;;;25.40;7.57;;;;;;;;;;4953063;28;20035;-66
2023/07/11 06:16:49;;;;;;;37.92;10.13;;;;;;;;;;4931346;28;20334;-66
2023/07/11 06:19:15;;;;;;;34.00;10.27;;;;;;;;;;4950656;28;20178;-66
2023/07/11 06:21:42;;;;;;;33.72;9.40;;;;;;;;;;4930702;28;20030;-65
2023/07/11 06:24:09;;;;;;;26.35;8.30;;;;;;;;;;4950162;28;20025;-66
2023/07/11 06:26:35;;;;;;;27.42;8.77;;;;;;;;;;4957962;28;20035;-65
2023/07/11 06:29:01;;;;;;;29.80;9.50;;;;;;;;;;4948711;28;20126;-66
2023/07/11 06:31:27;;;;;;;28.10;8.63;;;;;;;;;;4950776;28;20042;-65
2023/07/11 06:33:53;;;;;;;25.42;9.07;;;;;;;;;;4951172;28;20802;-67
2023/07/11 06:36:19;;;;;;;32.90;9.82;;;;;;;;;;4958746;28;20081;-65
2023/07/11 06:38:45;;;;;;;37.28;10.18;;;;;;;;;;4929950;28;20058;-65
2023/07/11 06:41:12;;;;;;;23.38;8.80;;;;;;;;;;4956511;28;20276;-66
2023/07/11 06:43:38;;;;;;;24.98;9.60;;;;;;;;;;4947756;28;20034;-65
2023/07/11 06:46:04;;;;;;;28.60;8.90;;;;;;;;;;4951449;28;20023;-65
2023/07/11 06:48:31;;;;;;;23.65;8.80;;;;;;;;;;4951863;28;20450;-65
2023/07/11 06:51:01;;;;;;;22.25;8.35;;;;;;;;;;4931250;28;21506;-65
2023/07/11 06:53:31;;;;;;;20.73;7.13;;;;;;;;;;4949492;28;20030;-65
2023/07/11 06:55:58;;;;;;;24.05;8.13;;;;;;;;;;4937297;28;20440;-66
2023/07/11 06:58:24;;;;;;;22.50;8.48;;;;;;;;;;4951584;28;20456;-66
2023/07/11 07:00:55;;;;;;;33.03;10.00;;;;;;;;;;4933595;28;20127;-65
2023/07/11 07:03:21;;;;;;;28.63;9.10;;;;;;;;;;4955950;28;20030;-65
2023/07/11 07:05:49;;;;;;;25.33;9.13;;;;;;;;;;4953387;28;20516;-65
2023/07/11 07:08:15;;;;;;;19.27;7.50;;;;;;;;;;4952386;28;20126;-65
2023/07/11 07:10:41;;;;;;;22.08;8.52;;;;;;;;;;4951911;28;20037;-65
2023/07/11 07:13:07;;;;;;;24.92;8.15;;;;;;;;;;4936801;28;20090;-65
2023/07/11 07:15:33;;;;;;;21.85;7.90;;;;;;;;;;4939506;28;20035;-64
2023/07/11 07:18:00;;;;;;;23.42;7.22;;;;;;;;;;4947808;28;20434;-65
2023/07/11 07:20:26;;;;;;;27.15;8.38;;;;;;;;;;4955972;28;21163;-65
2023/07/11 07:22:52;;;;;;;26.73;9.02;;;;;;;;;;4933255;28;20042;-65
2023/07/11 07:25:18;;;;;;;22.10;7.70;;;;;;;;;;4958831;28;20488;-65
2023/07/11 07:27:44;;;;;;;19.42;7.63;;;;;;;;;;4936094;28;20030;-65
2023/07/11 07:30:11;;;;;;;22.98;9.00;;;;;;;;;;4958891;28;20022;-65
2023/07/11 07:32:37;;;;;;;20.40;7.88;;;;;;;;;;4940514;28;20023;-66
2023/07/11 07:35:04;;;;;;;27.88;7.90;;;;;;;;;;4941375;28;20039;-65
2023/07/11 07:37:30;;;;;;;23.27;7.55;;;;;;;;;;4934441;28;20540;-65
2023/07/11 07:39:56;;;;;;;21.15;7.88;;;;;;;;;;4948103;28;20039;-65
2023/07/11 07:42:23;;;;;;;25.05;8.27;;;;;;;;;;4957453;28;20034;-66
2023/07/11 07:44:51;;;;;;;24.80;7.65;;;;;;;;;;4953550;28;20034;-65
2023/07/11 07:47:17;;;;;;;24.42;7.78;;;;;;;;;;4956470;28;20038;-65
2023/07/11 07:49:43;;;;;;;21.95;7.82;;;;;;;;;;4935723;28;20101;-65
2023/07/11 07:52:09;;;;;;;31.55;8.18;;;;;;;;;;4931777;28;20027;-65
2023/07/11 07:54:35;;;;;;;25.33;7.13;;;;;;;;;;4931574;28;20126;-66
2023/07/11 07:57:01;;;;;;;25.90;7.22;;;;;;;;;;4931743;28;20023;-67
2023/07/11 07:59:27;;;;;;;24.20;7.50;;;;;;;;;;4936059;28;20073;-66
2023/07/11 08:01:54;;;;;;;20.80;7.10;;;;;;;;;;4920586;28;20672;-66
2023/07/11 08:04:20;;;;;;;26.08;7.43;;;;;;;;;;4935716;28;20038;-66
2023/07/11 08:06:46;;;;;;;22.98;7.13;;;;;;;;;;4933346;28;20478;-66
2023/07/11 08:09:12;;;;;;;20.23;7.03;;;;;;;;;;4933105;28;20050;-66
2023/07/11 08:11:39;;;;;;;21.48;7.45;;;;;;;;;;4930326;28;20377;-66
2023/07/11 08:14:05;;;;;;;18.95;6.38;;;;;;;;;;4920373;28;20548;-66
2023/07/11 08:16:31;;;;;;;25.27;7.35;;;;;;;;;;4937463;28;20027;-66
2023/07/11 08:18:57;;;;;;;25.30;7.28;;;;;;;;;;4933810;28;21145;-66
2023/07/11 08:21:23;;;;;;;15.70;5.63;;;;;;;;;;4917580;28;20591;-66
2023/07/11 08:23:50;;;;;;;25.20;7.20;;;;;;;;;;4925986;28;20164;-66
2023/07/11 08:26:16;;;;;;;23.83;6.65;;;;;;;;;;4934018;28;20078;-66
2023/07/11 08:28:42;;;;;;;22.60;5.93;;;;;;;;;;4932778;28;20057;-66
2023/07/11 08:31:08;;;;;;;23.02;6.95;;;;;;;;;;4933832;28;20035;-66
2023/07/11 08:33:34;;;;;;;22.70;6.82;;;;;;;;;;4915710;28;20028;-66
2023/07/11 08:36:00;;;;;;;21.02;6.05;;;;;;;;;;4928908;28;20019;-66
2023/07/11 08:38:26;;;;;;;25.27;6.75;;;;;;;;;;4935952;28;20501;-66
2023/07/11 08:40:52;;;;;;;27.75;6.78;;;;;;;;;;4935641;28;20027;-66
2023/07/11 08:43:23;;;;;;;25.23;6.80;;;;;;;;;;4916024;28;20043;-66
2023/07/11 08:45:55;;;;;;;23.67;6.70;;;;;;;;;;4931615;28;20086;-66
2023/07/11 08:48:24;;;;;;;30.42;7.10;;;;;;;;;;4914457;28;20467;-67
2023/07/11 08:51:03;;;;;;;23.83;6.10;;;;;;;;;;4931088;28;20027;-66
2023/07/11 08:53:34;;;;;;;23.45;6.43;;;;;;;;;;4932765;28;20164;-66
2023/07/11 08:56:21;;;;;;;21.90;5.90;;;;;;;;;;4916554;28;20031;-67
2023/07/11 08:58:48;;;;;;;16.55;5.40;;;;;;;;;;4931586;28;20588;-67
2023/07/11 09:01:26;;;;;;;22.23;6.32;;;;;;;;;;4937084;28;20026;-67
2023/07/11 09:03:52;;;;;;;23.98;6.05;;;;;;;;;;4917549;28;20061;-66
2023/07/11 09:06:21;;;;;;;22.15;6.03;;;;;;;;;;4907552;28;20039;-66
2023/07/11 09:08:48;;;;;;;25.58;6.47;;;;;;;;;;4927122;28;20043;-66
2023/07/11 09:11:21;;;;;;;22.77;6.25;;;;;;;;;;4930761;28;20170;-67
2023/07/11 09:14:07;;;;;;;25.45;6.18;;;;;;;;;;4933923;28;20062;-66
2023/07/11 09:16:43;;;;;;;19.55;5.82;;;;;;;;;;4921779;28;20470;-66
2023/07/11 09:19:09;;;;;;;23.67;6.70;;;;;;;;;;4911783;28;20038;-66
2023/07/11 09:21:35;;;;;;;27.83;6.47;;;;;;;;;;4917528;28;20513;-66
2023/07/11 09:24:01;;;;;;;21.33;6.35;;;;;;;;;;4912826;28;20118;-66
2023/07/11 09:26:28;;;;;;;23.65;6.78;;;;;;;;;;4931233;28;20031;-66
2023/07/11 09:29:03;;;;;;;24.75;6.43;;;;;;;;;;4928618;28;20094;-66
2023/07/11 09:31:36;;;;;;;20.63;5.97;;;;;;;;;;4918006;28;20796;-66
2023/07/11 09:34:05;;;;;;;26.02;6.40;;;;;;;;;;4929912;28;20068;-65
2023/07/11 09:36:34;;;;;;;26.75;6.35;;;;;;;;;;4916365;28;20058;-66
2023/07/11 09:39:09;;;;;;;24.33;6.63;;;;;;;;;;4910416;28;20125;-66
2023/07/11 09:41:35;;;;;;;28.77;7.20;;;;;;;;;;4926905;28;20028;-65
2023/07/11 09:44:01;;;;;;;32.63;7.30;;;;;;;;;;4914003;28;20039;-66
2023/07/11 09:46:28;;;;;;;29.15;6.82;;;;;;;;;;4932198;28;20031;-67
2023/07/11 09:48:56;;;;;;;26.58;6.45;;;;;;;;;;4930108;28;20146;-66
2023/07/11 09:51:36;;;;;;;25.05;6.20;;;;;;;;;;4930357;28;20034;-68
2023/07/11 09:54:16;;;;;;;28.48;6.55;;;;;;;;;;4933277;28;20047;-66
2023/07/11 09:56:43;;;;;;;23.95;6.28;;;;;;;;;;4914125;28;20031;-69
2023/07/11 09:59:11;;;;;;;29.40;7.10;;;;;;;;;;4933479;28;20144;-65
2023/07/11 10:01:37;;;;;;;26.90;5.93;;;;;;;;;;4912391;28;20967;-68
2023/07/11 10:04:08;;;;;;;23.95;6.05;;;;;;;;;;4914740;28;20031;-67
2023/07/11 10:06:52;;;;;;;26.08;6.68;;;;;;;;;;4932899;28;20588;-67
2023/07/11 10:09:37;;;;;;;23.80;6.40;;;;;;;;;;4935140;28;20043;-66
2023/07/11 10:12:23;;;;;;;24.90;6.53;;;;;;;;;;4939618;28;20037;-67
2023/07/11 10:14:53;;;;;;;28.30;7.18;;;;;;;;;;4930797;28;20174;-67
2023/07/11 10:17:31;;;;;;;23.90;6.55;;;;;;;;;;4931939;28;21063;-67
2023/07/11 10:19:59;;;;;;;23.77;6.47;;;;;;;;;;4930379;28;20938;-67
2023/07/11 10:22:26;;;;;;;29.75;6.82;;;;;;;;;;4911499;28;20437;-66
2023/07/11 10:24:59;;;;;;;24.30;6.60;;;;;;;;;;4923283;28;20505;-66
2023/07/11 10:27:28;;;;;;;24.42;6.00;;;;;;;;;;4932768;28;20793;-66
2023/07/11 10:29:56;;;;;;;25.02;6.55;;;;;;;;;;4925622;28;20125;-66
2023/07/11 10:32:42;;;;;;;22.17;6.00;;;;;;;;;;4929722;28;20127;-66
2023/07/11 10:35:11;;;;;;;24.00;6.30;;;;;;;;;;4931933;28;20114;-67
2023/07/11 10:37:39;;;;;;;24.95;6.47;;;;;;;;;;4935962;28;20146;-66
2023/07/11 10:40:29;;;;;;;24.23;6.38;;;;;;;;;;4920127;28;20042;-66
2023/07/11 10:43:25;;;;;;;28.70;7.25;;;;;;;;;;4924923;28;20502;-66
2023/07/11 10:45:54;;;;;;;27.27;6.53;;;;;;;;;;4910418;28;20106;-67
2023/07/11 10:48:36;;;;;;;26.40;6.57;;;;;;;;;;4930421;28;20166;-67
2023/07/11 10:51:05;;;;;;;30.70;6.25;;;;;;;;;;4916172;28;20401;-66
2023/07/11 10:53:32;;;;;;;24.73;6.25;;;;;;;;;;4919806;28;20023;-66
2023/07/11 10:56:10;;;;;;;22.52;6.25;;;;;;;;;;4928569;28;20615;-67
2023/07/11 10:58:36;;;;;;;22.70;6.18;;;;;;;;;;4930453;28;20038;-67
2023/07/11 11:01:15;;;;;;;27.67;6.70;;;;;;;;;;4918786;28;20049;-67
2023/07/11 11:03:48;;;;;;;23.67;6.35;;;;;;;;;;4930430;28;20035;-67
2023/07/11 11:06:20;;;;;;;26.30;6.40;;;;;;;;;;4937064;28;20188;-67
2023/07/11 11:08:46;;;;;;;30.50;6.50;;;;;;;;;;4932214;28;20555;-66
2023/07/11 11:11:32;;;;;;;23.83;6.07;;;;;;;;;;4917195;28;20035;-67
2023/07/11 11:14:16;;;;;;;30.15;6.57;;;;;;;;;;4929762;28;20114;-67
2023/07/11 11:16:48;;;;;;;25.77;6.10;;;;;;;;;;4929169;28;20040;-67
2023/07/11 11:19:41;;;;;;;25.40;6.03;;;;;;;;;;4913884;28;20043;-67
2023/07/11 11:22:33;;;;;;;25.80;6.00;;;;;;;;;;4934647;28;20046;-67
2023/07/11 11:25:08;;;;;;;21.73;5.90;;;;;;;;;;4922621;28;20476;-68
2023/07/11 11:27:38;;;;;;;28.02;6.72;;;;;;;;;;4930118;28;20126;-67
2023/07/11 11:30:05;;;;;;;25.48;6.18;;;;;;;;;;4933166;28;20271;-68
2023/07/11 11:32:39;;;;;;;28.98;6.63;;;;;;;;;;4932081;28;20036;-67
2023/07/11 11:35:08;;;;;;;24.30;6.40;;;;;;;;;;4932229;28;20023;-67
2023/07/11 11:37:34;;;;;;;22.55;6.72;;;;;;;;;;4937268;28;20114;-67
2023/07/11 11:40:09;;;;;;;30.45;7.18;;;;;;;;;;4912739;28;20920;-67
2023/07/11 11:42:37;;;;;;;24.73;6.50;;;;;;;;;;4933209;28;20027;-67
2023/07/11 11:45:04;;;;;;;22.30;6.10;;;;;;;;;;4918175;28;20408;-67
2023/07/11 11:47:32;;;;;;;27.23;6.72;;;;;;;;;;4931947;28;20454;-67
2023/07/11 11:49:59;;;;;;;27.23;6.55;;;;;;;;;;4932569;28;20051;-67
2023/07/11 11:52:25;;;;;;;29.15;6.18;;;;;;;;;;4914517;28;20345;-66
2023/07/11 11:54:51;;;;;;;27.48;6.70;;;;;;;;;;4933788;28;20098;-66
2023/07/11 11:57:26;;;;;;;22.25;6.25;;;;;;;;;;4935659;28;20549;-67
2023/07/11 11:59:53;;;;;;;22.80;6.05;;;;;;;;;;4930234;28;20045;-66
2023/07/11 12:02:28;;;;;;;24.77;6.78;;;;;;;;;;4937183;28;20098;-67
2023/07/11 12:04:57;;;;;;;22.65;6.03;;;;;;;;;;4927212;28;20038;-67
2023/07/11 12:07:31;;;;;;;32.10;6.72;;;;;;;;;;4936451;28;20260;-66
2023/07/11 12:09:57;;;;;;;;;;;;;;;;;;4932647;28;20039;-66
2023/07/11 12:12:33;;;;;;;27.40;6.45;;;;;;;;;;4918728;28;19922;-66
2023/07/11 12:15:00;;;;;;;23.45;6.25;;;;;;;;;;4937694;28;20045;-66
2023/07/11 12:17:32;;;;;;;23.48;6.28;;;;;;;;;;4936885;28;20094;-66
2023/07/11 12:20:07;;;;;;;24.13;6.40;;;;;;;;;;4929335;28;20046;-66
2023/07/11 12:22:39;;;;;;;33.75;7.30;;;;;;;;;;4930315;28;20062;-65
2023/07/11 12:25:20;;;;;;;28.27;6.93;;;;;;;;;;4933294;28;20059;-66
2023/07/11 12:28:01;;;;;;;28.17;6.82;;;;;;;;;;4931960;28;20411;-65
2023/07/11 12:30:29;;;;;;;26.05;6.85;;;;;;;;;;4912792;28;20033;-65
2023/07/11 12:33:15;;;;;;;24.90;6.45;;;;;;;;;;4911446;28;20283;-66
2023/07/11 12:35:42;;;;;;;27.75;6.10;;;;;;;;;;4906261;28;20030;-65
2023/07/11 12:38:15;;;;;;;27.15;6.50;;;;;;;;;;4929356;28;20588;-66
2023/07/11 12:40:41;;;;;;;26.85;6.10;;;;;;;;;;4926902;28;20031;-65
2023/07/11 12:43:27;;;;;;;25.35;6.45;;;;;;;;;;4931463;28;20372;-66
2023/07/11 12:46:13;;;;;;;26.65;6.47;;;;;;;;;;4910063;28;20031;-66
2023/07/11 12:48:45;;;;;;;25.00;6.07;;;;;;;;;;4911225;28;20057;-67
2023/07/11 12:51:27;;;;;;;25.90;5.95;;;;;;;;;;4933118;28;20042;-66
2023/07/11 12:53:57;;;;;;;25.02;6.40;;;;;;;;;;4914107;28;20073;-66
2023/07/11 12:56:24;;;;;;;27.38;6.35;;;;;;;;;;4929850;28;20477;-66
2023/07/11 12:58:50;;;;;;;26.83;6.20;;;;;;;;;;4927941;28;20039;-68
2023/07/11 13:01:16;;;;;;;28.38;5.90;;;;;;;;;;4914749;28;20039;-66
2023/07/11 13:03:43;;;;;;;25.25;6.00;;;;;;;;;;4929864;28;20619;-66
2023/07/11 13:06:37;;;;;;;27.13;6.53;;;;;;;;;;4933036;28;20027;-66
2023/07/11 13:09:03;;;;;;;27.55;5.85;;;;;;;;;;4933848;28;20273;-66
2023/07/11 13:11:30;;;;;;;24.58;5.97;;;;;;;;;;4929293;28;20091;-66
2023/07/11 13:13:56;;;;;;;27.23;6.00;;;;;;;;;;4927498;28;20058;-66
2023/07/11 13:16:24;;;;;;;24.17;5.50;;;;;;;;;;4930054;28;20047;-66
2023/07/11 13:18:51;;;;;;;23.40;6.00;;;;;;;;;;4924748;28;20086;-66
2023/07/11 13:21:18;;;;;;;21.20;5.80;;;;;;;;;;4929708;28;20453;-67
2023/07/11 13:23:46;;;;;;;22.50;5.80;;;;;;;;;;4926770;28;20043;-68
2023/07/11 13:26:29;;;;;;;20.20;5.78;;;;;;;;;;4911794;28;20050;-66
2023/07/11 13:28:58;;;;;;;26.67;5.90;;;;;;;;;;4925864;28;20563;-67
2023/07/11 13:31:25;;;;;;;26.65;5.70;;;;;;;;;;4929692;28;21100;-67
2023/07/11 13:34:00;;;;;;;25.85;5.90;;;;;;;;;;4906821;28;20087;-66
2023/07/11 13:36:28;;;;;;;23.70;5.85;;;;;;;;;;4925478;28;20042;-67
2023/07/11 13:38:57;;;;;;;23.80;5.68;;;;;;;;;;4909146;28;20038;-66
2023/07/11 13:41:27;;;;;;;19.17;5.78;;;;;;;;;;4928489;28;20216;-67
2023/07/11 13:43:56;;;;;;;21.50;6.18;;;;;;;;;;4931153;28;20333;-66
2023/07/11 13:46:23;;;;;;;28.30;6.15;;;;;;;;;;4926821;28;20031;-65
2023/07/11 13:48:50;;;;;;;27.13;6.00;;;;;;;;;;4926044;28;20134;-68
2023/07/11 13:51:25;;;;;;;23.88;6.13;;;;;;;;;;4910349;28;20047;-66
2023/07/11 13:53:56;;;;;;;26.70;6.30;;;;;;;;;;4928374;28;20035;-68
2023/07/11 13:56:22;;;;;;;23.90;6.20;;;;;;;;;;4927894;28;20536;-65
2023/07/11 13:58:52;;;;;;;23.80;6.85;;;;;;;;;;4907928;28;20035;-65
2023/07/11 14:01:20;;;;;;;22.38;6.00;;;;;;;;;;4908524;28;20161;-66
2023/07/11 14:03:47;;;;;;;23.70;6.32;;;;;;;;;;4915059;28;20578;-67
2023/07/11 14:06:14;;;;;;;24.15;6.50;;;;;;;;;;4933824;28;20043;-67
2023/07/11 14:08:44;;;;;;;30.60;6.95;;;;;;;;;;4927226;28;20791;-67
2023/07/11 14:11:15;;;;;;;26.05;6.72;;;;;;;;;;4932348;28;20023;-67
2023/07/11 14:13:41;;;;;;;23.60;6.03;;;;;;;;;;4923871;28;20254;-66
2023/07/11 14:16:08;;;;;;;24.65;5.90;;;;;;;;;;4908945;28;20027;-66
2023/07/11 14:18:34;;;;;;;24.77;5.93;;;;;;;;;;4930969;28;20037;-66
2023/07/11 14:21:01;;;;;;;22.13;5.93;;;;;;;;;;4909943;28;20521;-66
2023/07/11 14:23:28;;;;;;;26.30;6.30;;;;;;;;;;4936207;28;20038;-67
2023/07/11 14:25:55;;;;;;;22.67;6.22;;;;;;;;;;4908701;28;20114;-67
2023/07/11 14:28:22;;;;;;;24.08;5.40;;;;;;;;;;4932524;28;20033;-68
2023/07/11 14:30:48;;;;;;;25.95;6.32;;;;;;;;;;4924388;28;20158;-66
2023/07/11 14:33:20;;;;;;;26.35;6.15;;;;;;;;;;4911108;28;20410;-65
2023/07/11 14:35:47;;;;;;;23.98;5.97;;;;;;;;;;4925955;28;21032;-66
2023/07/11 14:38:14;;;;;;;19.92;5.57;;;;;;;;;;4913138;28;20031;-66
2023/07/11 14:40:40;;;;;;;24.60;5.97;;;;;;;;;;4905935;28;20278;-66
2023/07/11 14:43:11;;;;;;;21.85;5.90;;;;;;;;;;4932560;28;20533;-66